Time;durP1;ratioP1;P1;durP2;ratioP2;P2;SDS_P1;SDS_P2;PMS_P1;PMS_P2;Temp;Humidity;BMP_temperature;BMP_pressure;BME280_temperature;BME280_humidity;BME280_pressure;Samples;Min_cycle;Max_cycle;Signal;HPM_P1;HPM_P2
2023/10/18 00:01:26;;;;;;;2.20;1.75;;;20.80;43.50;;;;;;5014693;28;20064;-47
2023/10/18 00:03:56;;;;;;;1.50;1.40;;;20.90;43.50;;;;;;5014427;28;20448;-47
2023/10/18 00:06:23;;;;;;;2.00;1.42;;;20.80;43.40;;;;;;5011656;28;20366;-51
2023/10/18 00:08:57;;;;;;;1.55;1.45;;;20.80;43.40;;;;;;5013737;28;20029;-47
2023/10/18 00:11:25;;;;;;;2.22;1.75;;;20.80;43.50;;;;;;5013548;28;20040;-51
2023/10/18 00:13:52;;;;;;;2.10;1.65;;;20.80;43.40;;;;;;5014421;28;20501;-49
2023/10/18 00:16:19;;;;;;;2.05;1.55;;;20.80;43.40;;;;;;5012707;28;20141;-48
2023/10/18 00:18:45;;;;;;;1.95;1.55;;;20.80;43.50;;;;;;5013632;28;20070;-51
2023/10/18 00:21:12;;;;;;;2.40;1.77;;;20.80;43.40;;;;;;5013693;28;20038;-47
2023/10/18 00:23:39;;;;;;;2.70;2.05;;;20.80;43.30;;;;;;5014588;28;20034;-50
2023/10/18 00:26:06;;;;;;;2.22;1.67;;;20.80;43.30;;;;;;5013622;28;20053;-49
2023/10/18 00:28:37;;;;;;;1.98;1.52;;;20.80;43.30;;;;;;5014486;28;20484;-50
2023/10/18 00:31:18;;;;;;;1.85;1.50;;;20.80;43.30;;;;;;4996986;28;20113;-50
2023/10/18 00:33:45;;;;;;;2.10;1.70;;;20.80;43.20;;;;;;5014460;28;20096;-48
2023/10/18 00:36:12;;;;;;;2.47;1.45;;;20.80;43.20;;;;;;5013126;28;20037;-49
2023/10/18 00:38:41;;;;;;;1.40;1.25;;;20.80;43.20;;;;;;5014323;28;20026;-48
2023/10/18 00:41:14;;;;;;;1.63;1.40;;;20.80;43.20;;;;;;5014075;28;20084;-51
2023/10/18 00:43:44;;;;;;;2.28;1.67;;;20.80;43.20;;;;;;4995661;28;20084;-48
2023/10/18 00:46:14;;;;;;;1.80;1.58;;;20.80;43.20;;;;;;4996123;28;20061;-51
2023/10/18 00:48:40;;;;;;;1.98;1.60;;;20.80;43.20;;;;;;5012372;28;20049;-46
2023/10/18 00:51:09;;;;;;;2.13;1.92;;;20.70;43.20;;;;;;4995849;28;20334;-45
2023/10/18 00:53:37;;;;;;;2.30;1.60;;;20.70;43.10;;;;;;4995984;28;20057;-49
2023/10/18 00:56:07;;;;;;;1.63;1.42;;;20.80;43.80;;;;;;5012786;28;20069;-49
2023/10/18 00:58:34;;;;;;;2.53;1.30;;;20.70;43.10;;;;;;5013538;28;20041;-45
2023/10/18 01:01:07;;;;;;;1.85;1.50;;;20.80;43.20;;;;;;5013100;28;20021;-47
2023/10/18 01:03:38;;;;;;;1.88;1.70;;;20.70;43.10;;;;;;5010369;28;20476;-45
2023/10/18 01:06:23;;;;;;;2.38;1.90;;;20.70;43.10;;;;;;5011304;28;20056;-46
2023/10/18 01:08:50;;;;;;;1.80;1.48;;;20.80;43.10;;;;;;4999942;28;20059;-45
2023/10/18 01:11:23;;;;;;;1.70;1.50;;;20.80;43.10;;;;;;5013268;28;20088;-47
2023/10/18 01:13:49;;;;;;;2.10;1.60;;;20.70;43.00;;;;;;5013103;28;20041;-50
2023/10/18 01:16:23;;;;;;;2.13;1.67;;;20.70;43.00;;;;;;5008860;28;20369;-45
2023/10/18 01:18:51;;;;;;;3.08;1.80;;;20.70;43.00;;;;;;4996230;28;20121;-50
2023/10/18 01:21:19;;;;;;;1.95;1.52;;;20.80;43.10;;;;;;4978801;28;20033;-49
2023/10/18 01:23:49;;;;;;;2.10;1.50;;;20.70;43.00;;;;;;4995733;28;20045;-48
2023/10/18 01:26:16;;;;;;;2.28;1.70;;;20.70;43.00;;;;;;5012273;28;20602;-49
2023/10/18 01:28:43;;;;;;;1.90;1.60;;;20.70;43.00;;;;;;5013025;28;20022;-47
2023/10/18 01:31:10;;;;;;;2.30;1.70;;;20.70;43.00;;;;;;4995829;28;20113;-50
2023/10/18 01:33:43;;;;;;;2.08;1.70;;;20.70;42.90;;;;;;5012514;28;20397;-45
2023/10/18 01:36:14;;;;;;;2.15;1.70;;;20.70;43.00;;;;;;5013153;28;20025;-46
2023/10/18 01:38:48;;;;;;;2.10;1.83;;;20.70;42.90;;;;;;4994580;28;20030;-45
2023/10/18 01:41:25;;;;;;;2.05;1.52;;;20.70;42.90;;;;;;5012717;28;20022;-47
2023/10/18 01:43:52;;;;;;;1.73;1.48;;;20.70;42.90;;;;;;4995611;28;20033;-46
2023/10/18 01:46:18;;;;;;;1.98;1.55;;;20.70;42.90;;;;;;5012992;28;20034;-48
2023/10/18 01:48:50;;;;;;;3.03;1.80;;;20.70;42.90;;;;;;4995145;28;20113;-50
2023/10/18 01:51:17;;;;;;;2.05;1.70;;;20.70;42.90;;;;;;5012564;28;20129;-48
2023/10/18 01:53:43;;;;;;;1.98;1.60;;;20.70;42.90;;;;;;5011934;28;20034;-46
2023/10/18 01:56:14;;;;;;;1.90;1.52;;;20.70;42.90;;;;;;4994402;28;20088;-48
2023/10/18 01:58:40;;;;;;;1.50;1.40;;;20.70;42.80;;;;;;4994678;28;20120;-46
2023/10/18 02:01:12;;;;;;;1.42;1.33;;;20.70;42.80;;;;;;4995146;28;20109;-49
2023/10/18 02:03:39;;;;;;;2.13;1.60;;;20.70;42.80;;;;;;5010768;28;20106;-47
2023/10/18 02:06:06;;;;;;;1.95;1.60;;;20.70;42.80;;;;;;4995343;28;20038;-48
2023/10/18 02:08:35;;;;;;;2.38;1.75;;;20.70;42.80;;;;;;5012797;28;20049;-49
2023/10/18 02:11:09;;;;;;;2.42;1.60;;;20.70;42.80;;;;;;5012479;28;20417;-47
2023/10/18 02:13:36;;;;;;;3.47;1.98;;;20.70;42.70;;;;;;4995016;28;20472;-48
2023/10/18 02:16:26;;;;;;;1.80;1.33;;;20.70;42.70;;;;;;4990698;28;20050;-50
2023/10/18 02:18:54;;;;;;;1.90;1.60;;;20.60;42.70;;;;;;5006850;28;20038;-50
2023/10/18 02:21:21;;;;;;;1.83;1.50;;;20.70;42.70;;;;;;4992492;28;20023;-51
2023/10/18 02:23:51;;;;;;;2.28;1.80;;;20.60;42.60;;;;;;4992314;28;20121;-46
2023/10/18 02:26:30;;;;;;;2.22;1.80;;;20.60;42.60;;;;;;4993041;28;20430;-45
2023/10/18 02:28:56;;;;;;;1.50;1.40;;;20.60;42.70;;;;;;4992133;28;20037;-47
2023/10/18 02:31:22;;;;;;;2.65;1.88;;;20.60;42.70;;;;;;4992264;28;20354;-47
2023/10/18 02:33:48;;;;;;;2.45;1.65;;;20.60;42.70;;;;;;4991670;28;20042;-45
2023/10/18 02:36:21;;;;;;;2.22;1.52;;;20.60;42.70;;;;;;4988666;28;20033;-49
2023/10/18 02:38:52;;;;;;;2.33;1.90;;;20.60;43.30;;;;;;4990805;28;20027;-46
2023/10/18 02:41:21;;;;;;;2.33;1.80;;;20.60;42.60;;;;;;4990861;28;20433;-50
2023/10/18 02:43:51;;;;;;;1.77;1.60;;;20.60;42.70;;;;;;4991709;28;20034;-49
2023/10/18 02:46:23;;;;;;;2.42;1.40;;;20.60;42.60;;;;;;4991414;28;20037;-50
2023/10/18 02:48:52;;;;;;;1.95;1.63;;;20.60;42.60;;;;;;4991409;28;20038;-48
2023/10/18 02:51:22;;;;;;;1.95;1.60;;;20.60;42.60;;;;;;4991952;28;20026;-46
2023/10/18 02:53:49;;;;;;;1.70;1.40;;;20.60;42.60;;;;;;4991752;28;20030;-48
2023/10/18 02:56:27;;;;;;;1.90;1.60;;;20.60;42.60;;;;;;4992061;28;20030;-46
2023/10/18 02:58:57;;;;;;;2.17;1.52;;;20.60;42.60;;;;;;4989875;28;20053;-49
2023/10/18 03:01:25;;;;;;;3.53;2.00;;;20.60;42.60;;;;;;4991899;28;20037;-50
2023/10/18 03:03:55;;;;;;;2.00;1.80;;;20.60;42.60;;;;;;4991482;28;20460;-49
2023/10/18 03:06:27;;;;;;;2.60;1.80;;;20.60;42.60;;;;;;4989600;28;20038;-50
2023/10/18 03:08:58;;;;;;;2.08;1.60;;;20.60;42.60;;;;;;4989983;28;20321;-47
2023/10/18 03:11:25;;;;;;;2.63;1.98;;;20.60;42.50;;;;;;4990530;28;20023;-49
2023/10/18 03:13:51;;;;;;;2.72;2.20;;;20.60;42.50;;;;;;4990808;28;20026;-47
2023/10/18 03:16:27;;;;;;;2.00;1.80;;;20.60;42.50;;;;;;5002657;28;20056;-49
2023/10/18 03:18:54;;;;;;;2.35;1.65;;;20.50;42.40;;;;;;5008759;28;20030;-46
2023/10/18 03:21:23;;;;;;;2.53;1.77;;;20.50;42.40;;;;;;5011282;28;20030;-48
2023/10/18 03:23:52;;;;;;;1.80;1.50;;;20.60;42.50;;;;;;5011467;28;20136;-48
2023/10/18 03:26:23;;;;;;;1.83;1.60;;;20.60;42.40;;;;;;5008243;28;20033;-47
2023/10/18 03:28:52;;;;;;;2.42;1.90;;;20.60;42.40;;;;;;5010199;28;20337;-49
2023/10/18 03:31:27;;;;;;;2.60;1.80;;;20.50;42.40;;;;;;4993504;28;20026;-48
2023/10/18 03:34:01;;;;;;;2.45;1.95;;;20.50;43.00;;;;;;5010263;28;20088;-46
2023/10/18 03:36:31;;;;;;;;;;;20.50;42.40;;;;;;5009651;28;20037;-48
2023/10/18 03:39:11;;;;;;;1.90;1.70;;;20.50;42.40;;;;;;4991692;28;19979;-49
2023/10/18 03:41:40;;;;;;;2.50;1.60;;;20.50;42.30;;;;;;4993747;28;20117;-49
2023/10/18 03:44:13;;;;;;;2.67;1.88;;;20.50;42.30;;;;;;4993178;28;20025;-51
2023/10/18 03:46:39;;;;;;;2.78;1.80;;;20.50;42.30;;;;;;4993163;28;20038;-49
2023/10/18 03:49:16;;;;;;;1.85;1.40;;;20.50;42.30;;;;;;4992984;28;20096;-46
2023/10/18 03:51:46;;;;;;;3.13;1.60;;;20.50;42.30;;;;;;5010659;28;20105;-51
2023/10/18 03:54:14;;;;;;;2.13;1.45;;;20.50;42.30;;;;;;4992552;28;20492;-48
2023/10/18 03:56:43;;;;;;;1.95;1.70;;;20.50;42.30;;;;;;4993174;28;20503;-51
2023/10/18 03:59:37;;;;;;;2.45;1.80;;;20.50;42.30;;;;;;4992935;28;20125;-47
2023/10/18 04:04:44;;;;;;;2.22;1.70;;;20.50;42.30;;;;;;5011205;28;20361;-47
2023/10/18 04:07:16;;;;;;;2.17;1.80;;;20.50;42.30;;;;;;5008928;28;20046;-49
2023/10/18 04:12:43;;;;;;;2.25;1.80;;;20.50;42.30;;;;;;4993120;28;20129;-48
2023/10/18 04:15:21;;;;;;;2.17;1.80;;;20.50;42.20;;;;;;5010364;28;20041;-47
2023/10/18 04:18:02;;;;;;;2.15;1.58;;;20.50;42.20;;;;;;4992762;28;20033;-50
2023/10/18 04:20:31;;;;;;;2.38;1.70;;;20.50;42.20;;;;;;5010125;28;20472;-47
2023/10/18 04:22:58;;;;;;;1.77;1.55;;;20.50;42.30;;;;;;5009784;28;20353;-49
2023/10/18 04:25:26;;;;;;;2.65;1.60;;;20.50;42.20;;;;;;5010360;28;20045;-48
2023/10/18 04:27:53;;;;;;;2.10;1.70;;;20.50;42.20;;;;;;5010629;28;20026;-48
2023/10/18 04:30:22;;;;;;;2.00;1.58;;;20.50;42.20;;;;;;5009091;28;20083;-49
2023/10/18 04:35:40;;;;;;;2.17;1.65;;;20.50;42.10;;;;;;4979983;28;20042;-47
2023/10/18 04:38:21;;;;;;;2.65;1.75;;;20.40;42.00;;;;;;5011303;28;20034;-46
2023/10/18 04:41:36;;;;;;;2.75;2.00;;;20.50;42.10;;;;;;5014407;28;20062;-48
2023/10/18 04:43:37;;;;;;;2.03;1.65;;;20.40;42.10;;;;;;5007270;28;20056;-48
2023/10/18 04:51:28;;;;;;;1.63;1.50;;;20.40;42.10;;;;;;5013297;28;20109;-48
2023/10/18 04:54:08;;;;;;;2.13;1.60;;;20.40;42.10;;;;;;5013116;28;20483;-47
2023/10/18 04:56:37;;;;;;;2.22;1.83;;;20.40;42.10;;;;;;5013235;28;20121;-48
2023/10/18 04:59:11;;;;;;;2.15;1.40;;;20.40;42.70;;;;;;5013420;28;20520;-50
2023/10/18 05:04:34;;;;;;;2.63;1.92;;;20.40;42.10;;;;;;5012500;28;20038;-50
2023/10/18 05:07:14;;;;;;;2.25;1.63;;;20.40;42.10;;;;;;5011902;28;20387;-47
2023/10/18 05:12:07;;;;;;;2.83;1.60;;;20.40;42.10;;;;;;5013376;28;20355;-49
2023/10/18 05:17:26;;;;;;;2.50;1.80;;;20.40;42.00;;;;;;5013875;28;20420;-47
2023/10/18 05:19:55;;;;;;;3.13;1.35;;;20.40;42.00;;;;;;5013270;28;20033;-46
2023/10/18 05:22:24;;;;;;;1.80;1.38;;;20.40;42.00;;;;;;5012805;28;20076;-48
2023/10/18 05:27:59;;;;;;;2.00;1.48;;;20.40;42.00;;;;;;4995501;28;20413;-51
2023/10/18 05:36:11;;;;;;;1.92;1.70;;;20.40;42.10;;;;;;5013291;28;20034;-46
2023/10/18 05:43:59;;;;;;;2.05;1.70;;;20.40;42.00;;;;;;5010936;28;20034;-49
2023/10/18 05:46:28;;;;;;;1.98;1.38;;;20.40;42.00;;;;;;5012595;28;20072;-49
2023/10/18 05:49:01;;;;;;;1.95;1.60;;;20.40;42.00;;;;;;5012307;28;20029;-46
2023/10/18 05:51:32;;;;;;;1.85;1.65;;;20.40;42.00;;;;;;5012699;28;20057;-50
2023/10/18 05:54:04;;;;;;;2.53;1.90;;;20.40;42.00;;;;;;5012168;28;20044;-50
2023/10/18 05:56:33;;;;;;;3.03;1.70;;;20.30;41.90;;;;;;5012201;28;20033;-48
2023/10/18 05:59:27;;;;;;;4.22;1.50;;;20.40;42.00;;;;;;4994168;28;20050;-47
2023/10/18 06:01:57;;;;;;;2.47;1.67;;;20.40;42.00;;;;;;5012468;28;20030;-46
2023/10/18 06:04:24;;;;;;;3.30;1.73;;;20.40;42.00;;;;;;5012158;28;20033;-46
2023/10/18 06:06:51;;;;;;;2.80;1.60;;;20.30;41.80;;;;;;5011259;28;20037;-51
2023/10/18 06:10:13;;;;;;;1.65;1.55;;;20.30;41.80;;;;;;5011581;28;20437;-51
2023/10/18 06:12:03;;;;;;;2.05;1.60;;;20.30;41.70;;;;;;5001380;28;20045;-55
2023/10/18 06:14:42;;;;;;;2.15;1.60;;;20.40;41.70;;;;;;5010441;28;20117;-52
2023/10/18 06:17:12;;;;;;;2.80;1.85;;;20.30;41.70;;;;;;5011122;28;20065;-52
2023/10/18 06:19:39;;;;;;;2.83;1.60;;;20.30;41.80;;;;;;5011792;28;20034;-51
2023/10/18 06:24:49;;;;;;;2.15;1.65;;;20.30;41.50;;;;;;5011361;28;20021;-49
2023/10/18 06:27:16;;;;;;;4.88;1.65;;;20.30;41.70;;;;;;5012240;28;20045;-52
2023/10/18 06:29:44;;;;;;;2.13;1.80;;;20.30;41.70;;;;;;5011806;28;20169;-50
2023/10/18 06:32:13;;;;;;;1.92;1.45;;;20.30;41.70;;;;;;5009217;28;20034;-49
2023/10/18 06:34:43;;;;;;;1.88;1.40;;;20.30;41.80;;;;;;5011869;28;20113;-50
2023/10/18 06:37:20;;;;;;;3.40;1.60;;;20.30;41.90;;;;;;4995045;28;20026;-48
2023/10/18 06:39:54;;;;;;;2.28;1.60;;;20.30;42.00;;;;;;5010082;28;20055;-47
2023/10/18 06:42:22;;;;;;;2.85;1.80;;;20.30;42.00;;;;;;5014505;28;20037;-48
2023/10/18 06:44:49;;;;;;;2.72;1.75;;;20.30;41.90;;;;;;5014584;28;20030;-47
2023/10/18 06:47:15;;;;;;;2.30;1.55;;;20.40;42.00;;;;;;5011585;28;20049;-49
2023/10/18 06:49:47;;;;;;;2.05;1.50;;;20.40;42.10;;;;;;5010906;28;20361;-48
2023/10/18 06:52:22;;;;;;;3.25;1.60;;;20.40;42.10;;;;;;4993375;28;20456;-50
2023/10/18 06:54:53;;;;;;;2.53;1.50;;;20.40;42.00;;;;;;5010694;28;20017;-48
2023/10/18 06:57:27;;;;;;;1.67;1.38;;;20.40;41.90;;;;;;5011883;28;20030;-45
2023/10/18 06:59:55;;;;;;;2.13;1.65;;;20.40;41.80;;;;;;5010824;28;20069;-49
2023/10/18 07:02:27;;;;;;;2.20;1.55;;;20.40;41.60;;;;;;5008654;28;20038;-53
2023/10/18 07:04:56;;;;;;;2.20;1.63;;;20.40;41.60;;;;;;5011663;28;20489;-49
2023/10/18 07:07:26;;;;;;;2.28;1.60;;;20.30;41.40;;;;;;5010487;28;20046;-47
2023/10/18 07:09:56;;;;;;;2.63;1.60;;;20.40;41.40;;;;;;5011327;28;20040;-48
2023/10/18 07:12:43;;;;;;;2.00;1.50;;;20.30;41.30;;;;;;5010624;28;20099;-50
2023/10/18 07:15:15;;;;;;;1.88;1.30;;;20.30;41.30;;;;;;5011321;28;20041;-52
2023/10/18 07:17:42;;;;;;;2.05;1.30;;;20.30;41.20;;;;;;5010005;28;20037;-50
2023/10/18 07:20:15;;;;;;;2.40;1.52;;;20.30;41.20;;;;;;5011870;28;20112;-50
2023/10/18 07:22:45;;;;;;;2.00;1.27;;;20.30;41.20;;;;;;5012093;28;20116;-51
2023/10/18 07:25:21;;;;;;;1.73;1.30;;;20.30;41.10;;;;;;5004949;28;20104;-48
2023/10/18 07:27:48;;;;;;;1.92;1.58;;;20.30;41.20;;;;;;5011051;28;20037;-49
2023/10/18 07:30:15;;;;;;;1.73;1.40;;;20.30;41.20;;;;;;5009497;28;20034;-52
2023/10/18 07:32:42;;;;;;;2.67;1.58;;;20.30;41.10;;;;;;5011064;28;20036;-47
2023/10/18 07:35:26;;;;;;;1.95;1.27;;;20.30;41.00;;;;;;5010970;28;20448;-45
2023/10/18 07:37:55;;;;;;;1.92;1.50;;;20.30;41.00;;;;;;5013075;28;20131;-43
2023/10/18 07:40:21;;;;;;;2.28;1.30;;;20.30;41.10;;;;;;5012700;28;20049;-46
2023/10/18 07:42:51;;;;;;;2.17;1.45;;;20.40;41.10;;;;;;5013549;28;20449;-49
2023/10/18 07:45:21;;;;;;;2.33;1.25;;;20.40;41.10;;;;;;5014309;28;20041;-48
2023/10/18 07:47:53;;;;;;;1.80;1.40;;;20.30;41.00;;;;;;5014519;28;20503;-45
2023/10/18 07:50:41;;;;;;;2.33;1.42;;;20.30;41.00;;;;;;5014060;28;20022;-50
2023/10/18 07:53:11;;;;;;;1.75;1.40;;;20.40;41.00;;;;;;5013484;28;20100;-45
2023/10/18 07:55:37;;;;;;;1.50;1.40;;;20.30;40.90;;;;;;5012719;28;20053;-46
2023/10/18 07:58:17;;;;;;;1.95;1.45;;;20.40;40.90;;;;;;5013995;28;20065;-45
2023/10/18 08:01:07;;;;;;;2.72;1.40;;;20.30;40.80;;;;;;5012372;28;20037;-46
2023/10/18 08:03:32;;;;;;;2.65;1.30;;;20.30;40.80;;;;;;5008668;28;20136;-50
2023/10/18 08:05:59;;;;;;;1.33;1.02;;;20.30;40.90;;;;;;5013430;28;20413;-48
2023/10/18 08:08:26;;;;;;;3.17;1.48;;;20.40;41.30;;;;;;5013586;28;20105;-52
2023/10/18 08:10:55;;;;;;;1.58;1.35;;;20.40;41.40;;;;;;5012925;28;20060;-53
2023/10/18 08:13:28;;;;;;;2.15;1.30;;;20.40;41.40;;;;;;5009659;28;20353;-51
2023/10/18 08:16:01;;;;;;;1.98;1.40;;;20.50;41.40;;;;;;5018456;28;20081;-50
2023/10/18 08:18:42;;;;;;;1.95;1.30;;;20.60;41.40;;;;;;5017543;28;20065;-49
2023/10/18 08:23:56;;;;;;;1.67;1.13;;;20.80;41.40;;;;;;5003544;28;20026;-48
2023/10/18 08:26:28;;;;;;;3.85;1.50;;;20.90;41.30;;;;;;5017725;28;20042;-49
2023/10/18 08:28:54;;;;;;;2.80;1.60;;;21.00;41.30;;;;;;5014727;28;20034;-47
2023/10/18 08:31:33;;;;;;;2.22;1.13;;;21.00;41.70;;;;;;5013519;28;20372;-50
2023/10/18 08:34:10;;;;;;;2.13;1.48;;;21.10;40.80;;;;;;5015112;28;20041;-48
2023/10/18 08:36:38;;;;;;;3.75;1.95;;;21.10;40.50;;;;;;5013859;28;20029;-46
2023/10/18 08:39:04;;;;;;;1.67;1.35;;;21.10;40.30;;;;;;5013887;28;20041;-46
2023/10/18 08:41:32;;;;;;;2.20;1.35;;;21.10;40.20;;;;;;5013916;28;20029;-47
2023/10/18 08:44:18;;;;;;;2.58;1.48;;;21.00;40.00;;;;;;4997248;28;20076;-47
2023/10/18 08:49:33;;;;;;;2.67;1.40;;;21.00;40.00;;;;;;5013917;28;20103;-50
2023/10/18 08:52:08;;;;;;;2.17;1.42;;;21.00;40.00;;;;;;5013095;28;20116;-51
2023/10/18 08:54:36;;;;;;;3.30;1.45;;;20.90;40.00;;;;;;5013524;28;20384;-48
2023/10/18 08:57:06;;;;;;;1.88;1.27;;;20.90;40.00;;;;;;5011617;28;20038;-48
2023/10/18 08:59:50;;;;;;;2.42;1.48;;;20.90;40.00;;;;;;5013045;28;20026;-47
2023/10/18 09:02:20;;;;;;;2.70;1.25;;;20.80;40.00;;;;;;5012709;28;20022;-50
2023/10/18 09:04:59;;;;;;;1.80;1.40;;;20.80;40.00;;;;;;5013388;28;20022;-45
2023/10/18 09:18:18;;;;;;;1.60;1.25;;;20.70;40.10;;;;;;5012813;28;20117;-46
2023/10/18 09:20:43;;;;;;;2.20;1.33;;;20.70;40.10;;;;;;5012965;28;20029;-46
2023/10/18 09:23:20;;;;;;;2.10;1.30;;;20.70;40.10;;;;;;5013385;28;20018;-48
2023/10/18 09:26:04;;;;;;;2.28;1.10;;;20.70;40.10;;;;;;4993367;28;20030;-46
2023/10/18 09:28:33;;;;;;;1.67;1.30;;;20.70;40.10;;;;;;5012986;28;20026;-47
2023/10/18 09:31:11;;;;;;;2.08;1.00;;;20.70;40.10;;;;;;5013431;28;20034;-47
2023/10/18 09:33:48;;;;;;;1.48;1.25;;;20.70;40.10;;;;;;5012124;28;20096;-51
2023/10/18 09:36:19;;;;;;;2.28;1.15;;;20.70;40.20;;;;;;5011238;28;20073;-46
2023/10/18 09:38:50;;;;;;;3.95;1.17;;;20.60;40.20;;;;;;5014261;28;20038;-46
2023/10/18 09:41:20;;;;;;;3.92;1.05;;;20.60;40.90;;;;;;5013236;28;20029;-51
2023/10/18 09:43:48;;;;;;;2.67;1.10;;;20.60;40.40;;;;;;5012504;28;20022;-48
2023/10/18 09:46:19;;;;;;;1.38;0.98;;;20.60;40.50;;;;;;5011714;28;20042;-49
2023/10/18 09:48:47;;;;;;;2.00;1.10;;;20.60;40.50;;;;;;5011658;28;20117;-49
2023/10/18 09:51:16;;;;;;;1.85;1.08;;;20.60;40.50;;;;;;5012285;28;20061;-49
2023/10/18 09:53:48;;;;;;;1.42;1.00;;;20.60;40.50;;;;;;5012221;28;20125;-49
2023/10/18 09:56:18;;;;;;;1.52;1.02;;;20.60;40.50;;;;;;5010289;28;20040;-47
2023/10/18 09:58:48;;;;;;;3.22;1.08;;;20.60;40.50;;;;;;5012193;28;20036;-46
2023/10/18 10:01:29;;;;;;;2.63;1.27;;;20.50;40.80;;;;;;5010818;28;20101;-47
2023/10/18 10:03:56;;;;;;;2.40;1.10;;;20.60;41.20;;;;;;5011769;28;20113;-50
2023/10/18 10:06:27;;;;;;;1.88;1.20;;;20.60;41.50;;;;;;5010475;28;20050;-49
2023/10/18 10:09:02;;;;;;;1.63;1.05;;;20.60;41.70;;;;;;5011196;28;20203;-51
2023/10/18 10:11:38;;;;;;;5.90;2.05;;;20.60;41.80;;;;;;5012143;28;20045;-48
2023/10/18 10:14:07;;;;;;;8.38;3.65;;;20.60;42.10;;;;;;5009578;28;20115;-53
2023/10/18 10:16:34;;;;;;;11.93;4.88;;;20.60;42.70;;;;;;5011317;28;20060;-49
2023/10/18 10:19:05;;;;;;;17.77;5.97;;;20.60;44.10;;;;;;5012378;28;20393;-48
2023/10/18 10:21:35;;;;;;;18.92;6.82;;;20.60;45.20;;;;;;5011680;28;20048;-47
2023/10/18 10:26:50;;;;;;;13.40;5.60;;;20.70;47.00;;;;;;5012619;28;20440;-46
2023/10/18 10:32:04;;;;;;;7.75;3.40;;;20.70;46.20;;;;;;5009649;28;20419;-49
2023/10/18 10:34:32;;;;;;;7.95;3.30;;;20.70;45.60;;;;;;5010587;28;20034;-50
2023/10/18 10:37:18;;;;;;;8.48;3.30;;;20.80;45.30;;;;;;5012696;28;21819;-50
2023/10/18 10:39:52;;;;;;;6.78;2.92;;;20.70;44.80;;;;;;5009318;28;20084;-51
2023/10/18 10:42:48;;;;;;;7.88;2.78;;;20.70;44.50;;;;;;5011656;28;20160;-52
2023/10/18 10:51:20;;;;;;;4.53;2.55;;;20.70;43.70;;;;;;5009687;28;20042;-46
2023/10/18 10:53:58;;;;;;;4.35;2.50;;;20.70;43.50;;;;;;5012160;28;20038;-51
2023/10/18 10:56:26;;;;;;;4.85;2.20;;;20.70;43.30;;;;;;5008702;28;20026;-48
2023/10/18 10:59:03;;;;;;;5.55;2.28;;;20.70;43.10;;;;;;5010677;28;20026;-51
2023/10/18 11:01:44;;;;;;;4.18;2.05;;;20.70;43.00;;;;;;5011161;28;20436;-48
2023/10/18 11:04:24;;;;;;;3.17;1.83;;;20.70;43.00;;;;;;5009959;28;20185;-48
2023/10/18 11:06:57;;;;;;;3.20;1.70;;;20.70;43.00;;;;;;5012225;28;20044;-46
2023/10/18 11:09:33;;;;;;;4.25;1.50;;;20.70;42.90;;;;;;5013388;28;20078;-48
2023/10/18 11:12:18;;;;;;;2.45;1.42;;;20.70;42.70;;;;;;5013537;28;20512;-45
2023/10/18 11:14:50;;;;;;;2.72;1.55;;;20.70;42.60;;;;;;5012202;28;20029;-47
2023/10/18 11:19:43;;;;;;;2.42;1.33;;;20.70;42.50;;;;;;5011322;28;20026;-47
2023/10/18 11:22:22;;;;;;;2.83;1.60;;;20.70;42.50;;;;;;5014373;28;20065;-46
2023/10/18 11:24:52;;;;;;;2.80;1.42;;;20.70;42.50;;;;;;5014765;28;20037;-50
2023/10/18 11:27:22;;;;;;;2.38;1.60;;;20.70;42.30;;;;;;5014032;28;20129;-49
2023/10/18 11:29:55;;;;;;;2.20;1.33;;;20.70;42.20;;;;;;5014219;28;20045;-46
2023/10/18 11:32:28;;;;;;;2.55;1.48;;;20.70;42.10;;;;;;5014820;28;20033;-46
2023/10/18 11:35:19;;;;;;;2.42;1.35;;;20.70;42.00;;;;;;5014186;28;20030;-45
2023/10/18 11:37:45;;;;;;;2.13;1.33;;;20.70;41.90;;;;;;5014212;28;20041;-48
2023/10/18 11:40:29;;;;;;;3.63;1.20;;;20.70;41.80;;;;;;5014662;28;20186;-49
2023/10/18 11:43:06;;;;;;;2.25;1.42;;;20.70;41.70;;;;;;5014603;28;20053;-46
2023/10/18 11:45:34;;;;;;;3.03;1.60;;;20.70;41.60;;;;;;5014282;28;20046;-49
2023/10/18 11:48:02;;;;;;;2.40;1.25;;;20.70;41.60;;;;;;5013600;28;20144;-48
2023/10/18 11:50:47;;;;;;;2.50;1.27;;;20.70;41.50;;;;;;5013171;28;20049;-47
2023/10/18 11:53:22;;;;;;;1.83;1.30;;;20.70;41.30;;;;;;5014537;28;20041;-49
2023/10/18 11:55:59;;;;;;;1.85;1.00;;;20.70;41.30;;;;;;5014291;28;20022;-47
2023/10/18 11:58:27;;;;;;;2.67;1.10;;;20.70;41.20;;;;;;5014807;28;20388;-47
2023/10/18 12:03:27;;;;;;;1.58;1.02;;;20.70;41.10;;;;;;5012307;28;20034;-51
2023/10/18 12:05:57;;;;;;;2.05;1.10;;;20.70;41.10;;;;;;5014162;28;20045;-48
2023/10/18 12:08:24;;;;;;;2.35;1.23;;;20.70;41.00;;;;;;5014582;28;20030;-48
2023/10/18 12:10:52;;;;;;;2.55;1.15;;;20.70;41.00;;;;;;5014502;28;20030;-49
2023/10/18 12:13:20;;;;;;;2.40;1.10;;;20.70;40.90;;;;;;5014212;28;20329;-51
2023/10/18 12:15:47;;;;;;;2.28;1.15;;;20.70;40.90;;;;;;5010439;28;20046;-48
2023/10/18 12:18:14;;;;;;;2.03;0.95;;;20.70;40.90;;;;;;4993509;28;20034;-51
2023/10/18 12:20:43;;;;;;;1.67;1.15;;;20.70;40.90;;;;;;5007547;28;20064;-50
2023/10/18 12:23:12;;;;;;;1.65;0.90;;;20.70;41.30;;;;;;5012392;28;20040;-49
2023/10/18 12:25:42;;;;;;;1.60;1.15;;;20.70;41.80;;;;;;5014042;28;20030;-52
2023/10/18 12:28:27;;;;;;;2.08;1.20;;;20.80;42.10;;;;;;5004667;28;20036;-51
2023/10/18 12:30:55;;;;;;;;;;;20.90;42.20;;;;;;5000801;28;20090;-46
2023/10/18 12:33:27;;;;;;;2.33;1.45;;;21.00;42.20;;;;;;4996579;28;19909;-47
2023/10/18 12:36:00;;;;;;;2.08;1.20;;;21.00;42.10;;;;;;5014024;28;20084;-48
2023/10/18 12:38:34;;;;;;;2.72;1.23;;;21.20;42.10;;;;;;5010433;28;20030;-47
2023/10/18 12:43:45;;;;;;;3.03;1.42;;;21.40;41.80;;;;;;5003226;28;19918;-43
2023/10/18 12:46:21;;;;;;;2.63;1.50;;;21.50;41.70;;;;;;5011503;28;20068;-49
2023/10/18 12:48:49;;;;;;;1.70;1.23;;;21.60;41.50;;;;;;5013490;28;20038;-45
2023/10/18 12:51:18;;;;;;;2.35;1.25;;;21.70;41.40;;;;;;5011695;28;20387;-45
2023/10/18 12:53:49;;;;;;;3.22;1.23;;;21.80;41.20;;;;;;4996937;28;20042;-45
2023/10/18 12:58:47;;;;;;;1.60;1.00;;;21.90;41.00;;;;;;5011177;28;20038;-47
2023/10/18 13:01:22;;;;;;;1.95;1.45;;;22.00;40.90;;;;;;5018531;28;20026;-46
2023/10/18 13:03:57;;;;;;;1.83;1.20;;;22.10;40.70;;;;;;5016888;28;20037;-47
2023/10/18 13:06:41;;;;;;;2.55;1.35;;;22.20;40.60;;;;;;5017438;28;20034;-49
2023/10/18 13:14:30;;;;;;;1.88;1.02;;;22.30;40.20;;;;;;5017609;28;20104;-50
2023/10/18 13:16:56;;;;;;;3.50;1.35;;;22.40;40.10;;;;;;5013676;28;20065;-50
2023/10/18 13:19:25;;;;;;;2.17;1.17;;;22.40;40.10;;;;;;5019271;28;20033;-46
2023/10/18 13:21:51;;;;;;;1.25;1.05;;;22.40;40.00;;;;;;5016637;28;20026;-45
2023/10/18 13:24:20;;;;;;;1.38;1.10;;;22.50;39.90;;;;;;5014185;28;20045;-44
2023/10/18 13:26:47;;;;;;;2.28;1.40;;;22.50;39.70;;;;;;5013574;28;20046;-46
2023/10/18 13:29:31;;;;;;;2.03;1.00;;;22.60;39.70;;;;;;5011611;28;20837;-45
2023/10/18 13:31:57;;;;;;;2.45;1.10;;;22.60;39.50;;;;;;5011307;28;20441;-46
2023/10/18 13:34:24;;;;;;;1.90;1.00;;;22.60;39.50;;;;;;5010947;28;20041;-49
2023/10/18 13:36:56;;;;;;;2.40;1.20;;;22.60;39.50;;;;;;5008192;28;20037;-49
2023/10/18 13:39:39;;;;;;;2.30;1.17;;;22.60;39.40;;;;;;5013840;28;20030;-48
2023/10/18 13:42:06;;;;;;;1.67;1.05;;;22.70;39.40;;;;;;5012193;28;20050;-52
2023/10/18 13:44:34;;;;;;;1.88;1.10;;;22.70;39.30;;;;;;5010215;28;20026;-49
2023/10/18 13:47:01;;;;;;;1.42;1.17;;;22.70;39.30;;;;;;5011206;28;20068;-45
2023/10/18 13:49:33;;;;;;;1.92;1.00;;;22.70;39.30;;;;;;5005223;28;20459;-51
2023/10/18 13:52:00;;;;;;;1.90;1.27;;;22.80;39.20;;;;;;5005934;28;20073;-46
2023/10/18 13:54:26;;;;;;;1.88;1.15;;;22.80;39.10;;;;;;4997231;28;20076;-53
2023/10/18 13:56:56;;;;;;;2.67;1.10;;;22.80;39.10;;;;;;5015302;28;20031;-53
2023/10/18 13:59:22;;;;;;;1.83;1.10;;;22.80;39.10;;;;;;5006126;28;20488;-47
2023/10/18 14:01:54;;;;;;;2.47;0.90;;;22.80;39.10;;;;;;5013297;28;20084;-50
2023/10/18 14:04:25;;;;;;;2.45;1.20;;;22.80;39.10;;;;;;5011846;28;20033;-48
2023/10/18 14:06:54;;;;;;;1.75;1.10;;;22.80;39.10;;;;;;5011713;28;20033;-51
2023/10/18 14:09:22;;;;;;;2.45;0.98;;;22.80;39.20;;;;;;5013745;28;20037;-50
2023/10/18 14:11:48;;;;;;;1.75;0.98;;;22.80;39.30;;;;;;5013020;28;20029;-50
2023/10/18 14:14:14;;;;;;;3.35;1.33;;;22.70;39.20;;;;;;5013704;28;20056;-53
2023/10/18 14:16:40;;;;;;;2.20;1.08;;;22.70;39.20;;;;;;5010993;28;20140;-54
2023/10/18 14:19:06;;;;;;;2.08;1.42;;;22.60;39.10;;;;;;5010665;28;20030;-53
2023/10/18 14:21:33;;;;;;;1.63;1.10;;;22.50;39.10;;;;;;5012842;28;20041;-48
2023/10/18 14:24:05;;;;;;;1.65;1.08;;;22.40;39.20;;;;;;5013941;28;20026;-49
2023/10/18 14:26:33;;;;;;;1.95;1.15;;;22.40;39.20;;;;;;5017517;28;20490;-47
2023/10/18 14:29:02;;;;;;;1.73;1.13;;;22.30;39.30;;;;;;5015216;28;20026;-52
2023/10/18 14:31:28;;;;;;;1.67;0.95;;;22.20;39.40;;;;;;5014856;28;20041;-49